sensor_id;sensor_type;location;lat;lon;timestamp;P1;durP1;ratioP1;P2;durP2;ratioP2
74223;SDS011;62585;49.706;18.216;2024-01-30T00:02:06;7.13;;;2.95;;
74223;SDS011;62585;49.706;18.216;2024-01-30T00:04:32;4.75;;;3.08;;
74223;SDS011;62585;49.706;18.216;2024-01-30T00:06:57;6.00;;;3.10;;
74223;SDS011;62585;49.706;18.216;2024-01-30T00:09:23;3.97;;;2.75;;
74223;SDS011;62585;49.706;18.216;2024-01-30T00:11:49;3.60;;;1.92;;
74223;SDS011;62585;49.706;18.216;2024-01-30T00:14:14;5.00;;;2.97;;
74223;SDS011;62585;49.706;18.216;2024-01-30T00:16:40;10.73;;;4.60;;
74223;SDS011;62585;49.706;18.216;2024-01-30T00:19:06;6.47;;;3.65;;
74223;SDS011;62585;49.706;18.216;2024-01-30T00:21:33;5.03;;;2.78;;
74223;SDS011;62585;49.706;18.216;2024-01-30T00:23:59;5.80;;;3.70;;
74223;SDS011;62585;49.706;18.216;2024-01-30T00:26:25;6.43;;;3.40;;
74223;SDS011;62585;49.706;18.216;2024-01-30T00:28:50;5.82;;;3.35;;
74223;SDS011;62585;49.706;18.216;2024-01-30T00:31:16;5.55;;;2.60;;
74223;SDS011;62585;49.706;18.216;2024-01-30T00:33:42;8.98;;;3.65;;
74223;SDS011;62585;49.706;18.216;2024-01-30T00:36:09;5.30;;;3.15;;
74223;SDS011;62585;49.706;18.216;2024-01-30T00:38:35;8.32;;;4.10;;
74223;SDS011;62585;49.706;18.216;2024-01-30T00:41:01;7.25;;;3.22;;
74223;SDS011;62585;49.706;18.216;2024-01-30T00:43:27;8.65;;;3.10;;
74223;SDS011;62585;49.706;18.216;2024-01-30T00:45:53;6.70;;;3.03;;
74223;SDS011;62585;49.706;18.216;2024-01-30T00:48:19;5.95;;;3.47;;
74223;SDS011;62585;49.706;18.216;2024-01-30T00:50:45;7.47;;;3.33;;
74223;SDS011;62585;49.706;18.216;2024-01-30T00:53:11;5.97;;;3.33;;
74223;SDS011;62585;49.706;18.216;2024-01-30T00:55:37;5.05;;;2.60;;
74223;SDS011;62585;49.706;18.216;2024-01-30T00:58:03;7.15;;;4.40;;
74223;SDS011;62585;49.706;18.216;2024-01-30T01:00:29;4.93;;;2.60;;
74223;SDS011;62585;49.706;18.216;2024-01-30T01:02:57;6.93;;;2.80;;
74223;SDS011;62585;49.706;18.216;2024-01-30T01:05:23;8.25;;;4.35;;
74223;SDS011;62585;49.706;18.216;2024-01-30T01:07:49;9.98;;;3.92;;
74223;SDS011;62585;49.706;18.216;2024-01-30T01:10:18;6.50;;;2.53;;
74223;SDS011;62585;49.706;18.216;2024-01-30T01:12:44;7.38;;;4.35;;
74223;SDS011;62585;49.706;18.216;2024-01-30T01:15:11;7.55;;;3.40;;
74223;SDS011;62585;49.706;18.216;2024-01-30T01:17:40;5.60;;;3.03;;
74223;SDS011;62585;49.706;18.216;2024-01-30T01:20:06;6.35;;;3.30;;
74223;SDS011;62585;49.706;18.216;2024-01-30T01:22:33;13.07;;;4.07;;
74223;SDS011;62585;49.706;18.216;2024-01-30T01:24:59;5.68;;;2.80;;
74223;SDS011;62585;49.706;18.216;2024-01-30T01:27:26;6.38;;;3.92;;
74223;SDS011;62585;49.706;18.216;2024-01-30T01:29:52;8.45;;;4.35;;
74223;SDS011;62585;49.706;18.216;2024-01-30T01:32:18;10.68;;;3.63;;
74223;SDS011;62585;49.706;18.216;2024-01-30T01:34:44;3.45;;;2.25;;
74223;SDS011;62585;49.706;18.216;2024-01-30T01:37:10;7.10;;;4.43;;
74223;SDS011;62585;49.706;18.216;2024-01-30T01:39:35;10.20;;;3.67;;
74223;SDS011;62585;49.706;18.216;2024-01-30T01:42:01;8.50;;;4.68;;
74223;SDS011;62585;49.706;18.216;2024-01-30T01:44:27;6.00;;;3.75;;
74223;SDS011;62585;49.706;18.216;2024-01-30T01:46:53;8.85;;;3.70;;
74223;SDS011;62585;49.706;18.216;2024-01-30T01:49:20;8.75;;;3.50;;
74223;SDS011;62585;49.706;18.216;2024-01-30T01:51:48;9.90;;;3.80;;
74223;SDS011;62585;49.706;18.216;2024-01-30T01:54:14;8.45;;;3.63;;
74223;SDS011;62585;49.706;18.216;2024-01-30T01:56:41;7.22;;;3.70;;
74223;SDS011;62585;49.706;18.216;2024-01-30T01:59:08;10.30;;;3.92;;
74223;SDS011;62585;49.706;18.216;2024-01-30T02:01:34;11.95;;;4.80;;
74223;SDS011;62585;49.706;18.216;2024-01-30T02:04:06;6.88;;;4.03;;
74223;SDS011;62585;49.706;18.216;2024-01-30T02:06:32;8.02;;;3.53;;
74223;SDS011;62585;49.706;18.216;2024-01-30T02:08:59;17.63;;;4.22;;
74223;SDS011;62585;49.706;18.216;2024-01-30T02:11:25;6.88;;;3.38;;
74223;SDS011;62585;49.706;18.216;2024-01-30T02:13:51;12.63;;;3.97;;
74223;SDS011;62585;49.706;18.216;2024-01-30T02:16:17;5.35;;;2.38;;
74223;SDS011;62585;49.706;18.216;2024-01-30T02:18:43;9.48;;;4.63;;
74223;SDS011;62585;49.706;18.216;2024-01-30T02:21:10;10.07;;;4.72;;
74223;SDS011;62585;49.706;18.216;2024-01-30T02:23:36;7.00;;;4.25;;
74223;SDS011;62585;49.706;18.216;2024-01-30T02:26:03;7.38;;;4.35;;
74223;SDS011;62585;49.706;18.216;2024-01-30T02:28:29;4.40;;;3.25;;
74223;SDS011;62585;49.706;18.216;2024-01-30T02:30:54;7.57;;;3.95;;
74223;SDS011;62585;49.706;18.216;2024-01-30T02:33:20;8.07;;;4.15;;
74223;SDS011;62585;49.706;18.216;2024-01-30T02:35:47;8.50;;;4.55;;
74223;SDS011;62585;49.706;18.216;2024-01-30T02:38:13;6.55;;;3.83;;
74223;SDS011;62585;49.706;18.216;2024-01-30T02:40:40;7.57;;;3.28;;
74223;SDS011;62585;49.706;18.216;2024-01-30T02:43:06;6.63;;;4.43;;
74223;SDS011;62585;49.706;18.216;2024-01-30T02:45:32;10.00;;;3.75;;
74223;SDS011;62585;49.706;18.216;2024-01-30T02:47:57;5.05;;;3.25;;
74223;SDS011;62585;49.706;18.216;2024-01-30T02:50:23;6.03;;;2.13;;
74223;SDS011;62585;49.706;18.216;2024-01-30T02:52:49;7.00;;;3.47;;
74223;SDS011;62585;49.706;18.216;2024-01-30T02:55:15;8.90;;;3.58;;
74223;SDS011;62585;49.706;18.216;2024-01-30T02:57:43;6.30;;;3.47;;
74223;SDS011;62585;49.706;18.216;2024-01-30T03:00:09;8.95;;;3.05;;
74223;SDS011;62585;49.706;18.216;2024-01-30T03:02:35;8.25;;;4.38;;
74223;SDS011;62585;49.706;18.216;2024-01-30T03:05:02;5.63;;;2.38;;
74223;SDS011;62585;49.706;18.216;2024-01-30T03:07:29;8.00;;;4.30;;
74223;SDS011;62585;49.706;18.216;2024-01-30T03:09:55;5.65;;;2.85;;
74223;SDS011;62585;49.706;18.216;2024-01-30T03:12:21;13.40;;;3.08;;
74223;SDS011;62585;49.706;18.216;2024-01-30T03:14:47;6.20;;;3.17;;
74223;SDS011;62585;49.706;18.216;2024-01-30T03:17:13;9.05;;;3.25;;
74223;SDS011;62585;49.706;18.216;2024-01-30T03:19:39;6.18;;;2.88;;
74223;SDS011;62585;49.706;18.216;2024-01-30T03:22:05;4.15;;;2.45;;
74223;SDS011;62585;49.706;18.216;2024-01-30T03:24:30;3.15;;;2.10;;
74223;SDS011;62585;49.706;18.216;2024-01-30T03:26:56;7.18;;;3.22;;
74223;SDS011;62585;49.706;18.216;2024-01-30T03:29:21;5.90;;;2.95;;
74223;SDS011;62585;49.706;18.216;2024-01-30T03:31:47;2.67;;;1.58;;
74223;SDS011;62585;49.706;18.216;2024-01-30T03:34:13;10.35;;;3.42;;
74223;SDS011;62585;49.706;18.216;2024-01-30T03:36:39;4.55;;;2.67;;
74223;SDS011;62585;49.706;18.216;2024-01-30T03:39:05;6.07;;;4.18;;
74223;SDS011;62585;49.706;18.216;2024-01-30T03:41:31;8.07;;;3.67;;
74223;SDS011;62585;49.706;18.216;2024-01-30T03:43:57;4.88;;;2.63;;
74223;SDS011;62585;49.706;18.216;2024-01-30T03:46:23;7.32;;;3.08;;
74223;SDS011;62585;49.706;18.216;2024-01-30T03:48:49;7.45;;;3.53;;
74223;SDS011;62585;49.706;18.216;2024-01-30T03:51:15;5.13;;;3.15;;
74223;SDS011;62585;49.706;18.216;2024-01-30T03:53:44;7.68;;;2.72;;
74223;SDS011;62585;49.706;18.216;2024-01-30T03:56:11;5.53;;;2.08;;
74223;SDS011;62585;49.706;18.216;2024-01-30T03:58:40;5.97;;;3.65;;
74223;SDS011;62585;49.706;18.216;2024-01-30T04:01:07;7.55;;;3.85;;
74223;SDS011;62585;49.706;18.216;2024-01-30T04:03:33;5.40;;;2.90;;
74223;SDS011;62585;49.706;18.216;2024-01-30T04:05:59;7.13;;;3.38;;
74223;SDS011;62585;49.706;18.216;2024-01-30T04:08:24;8.30;;;3.55;;
74223;SDS011;62585;49.706;18.216;2024-01-30T04:10:50;8.25;;;3.22;;
74223;SDS011;62585;49.706;18.216;2024-01-30T04:13:16;9.80;;;3.50;;
74223;SDS011;62585;49.706;18.216;2024-01-30T04:15:42;5.38;;;2.83;;
74223;SDS011;62585;49.706;18.216;2024-01-30T04:18:07;6.57;;;3.17;;
74223;SDS011;62585;49.706;18.216;2024-01-30T04:20:33;7.90;;;3.95;;
74223;SDS011;62585;49.706;18.216;2024-01-30T04:22:59;9.73;;;3.47;;
74223;SDS011;62585;49.706;18.216;2024-01-30T04:25:25;3.70;;;2.63;;
74223;SDS011;62585;49.706;18.216;2024-01-30T04:27:50;5.75;;;3.45;;
74223;SDS011;62585;49.706;18.216;2024-01-30T04:30:16;5.50;;;2.28;;
74223;SDS011;62585;49.706;18.216;2024-01-30T04:32:43;8.70;;;3.72;;
74223;SDS011;62585;49.706;18.216;2024-01-30T04:35:09;7.50;;;3.35;;
74223;SDS011;62585;49.706;18.216;2024-01-30T04:37:35;8.88;;;4.15;;
74223;SDS011;62585;49.706;18.216;2024-01-30T04:40:00;6.65;;;3.97;;
74223;SDS011;62585;49.706;18.216;2024-01-30T04:42:26;6.03;;;3.42;;
74223;SDS011;62585;49.706;18.216;2024-01-30T04:44:52;7.75;;;4.32;;
74223;SDS011;62585;49.706;18.216;2024-01-30T04:47:18;6.38;;;2.72;;
74223;SDS011;62585;49.706;18.216;2024-01-30T04:49:44;12.85;;;3.53;;
74223;SDS011;62585;49.706;18.216;2024-01-30T04:52:09;6.70;;;3.30;;
74223;SDS011;62585;49.706;18.216;2024-01-30T04:54:35;6.85;;;3.58;;
74223;SDS011;62585;49.706;18.216;2024-01-30T04:57:01;7.22;;;3.35;;
74223;SDS011;62585;49.706;18.216;2024-01-30T04:59:28;5.47;;;2.47;;
74223;SDS011;62585;49.706;18.216;2024-01-30T05:01:54;8.10;;;4.15;;
74223;SDS011;62585;49.706;18.216;2024-01-30T05:04:20;5.53;;;3.60;;
74223;SDS011;62585;49.706;18.216;2024-01-30T05:06:45;6.28;;;2.92;;
74223;SDS011;62585;49.706;18.216;2024-01-30T05:09:12;5.75;;;3.08;;
74223;SDS011;62585;49.706;18.216;2024-01-30T05:11:40;4.28;;;3.03;;
74223;SDS011;62585;49.706;18.216;2024-01-30T05:14:07;6.35;;;3.15;;
74223;SDS011;62585;49.706;18.216;2024-01-30T05:16:33;6.00;;;2.95;;
74223;SDS011;62585;49.706;18.216;2024-01-30T05:19:00;10.05;;;3.75;;
74223;SDS011;62585;49.706;18.216;2024-01-30T05:21:26;9.95;;;4.32;;
74223;SDS011;62585;49.706;18.216;2024-01-30T05:23:52;6.68;;;4.13;;
74223;SDS011;62585;49.706;18.216;2024-01-30T05:26:17;10.18;;;4.00;;
74223;SDS011;62585;49.706;18.216;2024-01-30T05:28:43;8.18;;;4.30;;
74223;SDS011;62585;49.706;18.216;2024-01-30T05:31:13;8.35;;;4.05;;
74223;SDS011;62585;49.706;18.216;2024-01-30T05:33:40;9.40;;;4.25;;
74223;SDS011;62585;49.706;18.216;2024-01-30T05:36:05;8.43;;;3.97;;
74223;SDS011;62585;49.706;18.216;2024-01-30T05:38:31;12.45;;;4.50;;
74223;SDS011;62585;49.706;18.216;2024-01-30T05:40:57;8.65;;;3.47;;
74223;SDS011;62585;49.706;18.216;2024-01-30T05:43:24;6.85;;;3.92;;
74223;SDS011;62585;49.706;18.216;2024-01-30T05:45:50;8.45;;;3.53;;
74223;SDS011;62585;49.706;18.216;2024-01-30T05:48:17;10.60;;;4.47;;
74223;SDS011;62585;49.706;18.216;2024-01-30T05:50:42;9.48;;;3.97;;
74223;SDS011;62585;49.706;18.216;2024-01-30T05:53:08;11.32;;;4.60;;
74223;SDS011;62585;49.706;18.216;2024-01-30T05:55:34;10.13;;;4.72;;
74223;SDS011;62585;49.706;18.216;2024-01-30T05:58:00;11.73;;;4.75;;
74223;SDS011;62585;49.706;18.216;2024-01-30T06:00:25;9.48;;;4.57;;
74223;SDS011;62585;49.706;18.216;2024-01-30T06:02:51;11.93;;;4.45;;
74223;SDS011;62585;49.706;18.216;2024-01-30T06:05:17;11.70;;;3.60;;
74223;SDS011;62585;49.706;18.216;2024-01-30T06:07:43;7.00;;;3.75;;
74223;SDS011;62585;49.706;18.216;2024-01-30T06:10:08;12.90;;;4.78;;
74223;SDS011;62585;49.706;18.216;2024-01-30T06:12:34;10.10;;;4.68;;
74223;SDS011;62585;49.706;18.216;2024-01-30T06:15:01;10.20;;;4.15;;
74223;SDS011;62585;49.706;18.216;2024-01-30T06:17:27;7.68;;;3.97;;
74223;SDS011;62585;49.706;18.216;2024-01-30T06:19:53;11.90;;;5.30;;
74223;SDS011;62585;49.706;18.216;2024-01-30T06:22:19;9.27;;;4.80;;
74223;SDS011;62585;49.706;18.216;2024-01-30T06:24:45;10.00;;;4.85;;
74223;SDS011;62585;49.706;18.216;2024-01-30T06:27:13;7.53;;;4.53;;
74223;SDS011;62585;49.706;18.216;2024-01-30T06:29:39;8.93;;;4.35;;
74223;SDS011;62585;49.706;18.216;2024-01-30T06:32:06;7.75;;;4.10;;
74223;SDS011;62585;49.706;18.216;2024-01-30T06:34:32;10.98;;;4.32;;
74223;SDS011;62585;49.706;18.216;2024-01-30T06:36:57;8.68;;;4.47;;
74223;SDS011;62585;49.706;18.216;2024-01-30T06:39:23;6.65;;;4.18;;
74223;SDS011;62585;49.706;18.216;2024-01-30T06:41:49;12.13;;;4.65;;
74223;SDS011;62585;49.706;18.216;2024-01-30T06:44:15;12.95;;;5.35;;
74223;SDS011;62585;49.706;18.216;2024-01-30T06:46:40;12.00;;;4.63;;
74223;SDS011;62585;49.706;18.216;2024-01-30T06:49:06;8.82;;;4.35;;
74223;SDS011;62585;49.706;18.216;2024-01-30T06:51:32;7.05;;;4.93;;
74223;SDS011;62585;49.706;18.216;2024-01-30T06:53:58;10.32;;;4.60;;
74223;SDS011;62585;49.706;18.216;2024-01-30T06:56:23;8.93;;;4.10;;
74223;SDS011;62585;49.706;18.216;2024-01-30T06:58:49;9.05;;;4.78;;
74223;SDS011;62585;49.706;18.216;2024-01-30T07:01:18;8.85;;;3.80;;
74223;SDS011;62585;49.706;18.216;2024-01-30T07:03:44;8.77;;;4.72;;
74223;SDS011;62585;49.706;18.216;2024-01-30T07:06:10;10.80;;;4.53;;
74223;SDS011;62585;49.706;18.216;2024-01-30T07:08:38;11.13;;;4.70;;
74223;SDS011;62585;49.706;18.216;2024-01-30T07:11:05;13.10;;;5.57;;
74223;SDS011;62585;49.706;18.216;2024-01-30T07:13:31;11.00;;;4.68;;
74223;SDS011;62585;49.706;18.216;2024-01-30T07:15:57;7.60;;;4.75;;
74223;SDS011;62585;49.706;18.216;2024-01-30T07:18:23;12.93;;;5.20;;
74223;SDS011;62585;49.706;18.216;2024-01-30T07:20:49;7.88;;;5.30;;
74223;SDS011;62585;49.706;18.216;2024-01-30T07:23:15;10.57;;;4.82;;
74223;SDS011;62585;49.706;18.216;2024-01-30T07:25:43;9.10;;;4.35;;
74223;SDS011;62585;49.706;18.216;2024-01-30T07:28:10;11.73;;;5.22;;
74223;SDS011;62585;49.706;18.216;2024-01-30T07:30:37;9.60;;;5.57;;
74223;SDS011;62585;49.706;18.216;2024-01-30T07:33:04;13.43;;;5.57;;
74223;SDS011;62585;49.706;18.216;2024-01-30T07:35:30;8.90;;;4.38;;
74223;SDS011;62585;49.706;18.216;2024-01-30T07:37:55;9.75;;;5.35;;
74223;SDS011;62585;49.706;18.216;2024-01-30T07:40:22;13.52;;;5.18;;
74223;SDS011;62585;49.706;18.216;2024-01-30T07:42:49;17.52;;;5.30;;
74223;SDS011;62585;49.706;18.216;2024-01-30T07:45:15;11.27;;;5.80;;
74223;SDS011;62585;49.706;18.216;2024-01-30T07:47:41;12.15;;;5.55;;
74223;SDS011;62585;49.706;18.216;2024-01-30T07:50:07;9.80;;;5.05;;
74223;SDS011;62585;49.706;18.216;2024-01-30T07:52:34;11.77;;;5.28;;
74223;SDS011;62585;49.706;18.216;2024-01-30T07:55:00;13.77;;;6.85;;
74223;SDS011;62585;49.706;18.216;2024-01-30T07:57:26;11.05;;;5.75;;
74223;SDS011;62585;49.706;18.216;2024-01-30T07:59:51;13.25;;;5.85;;
74223;SDS011;62585;49.706;18.216;2024-01-30T08:02:17;11.88;;;6.07;;
74223;SDS011;62585;49.706;18.216;2024-01-30T08:04:43;15.15;;;6.80;;
74223;SDS011;62585;49.706;18.216;2024-01-30T08:07:09;15.98;;;7.05;;
74223;SDS011;62585;49.706;18.216;2024-01-30T08:09:34;17.05;;;6.68;;
74223;SDS011;62585;49.706;18.216;2024-01-30T08:12:00;12.30;;;7.20;;
74223;SDS011;62585;49.706;18.216;2024-01-30T08:14:27;11.88;;;5.05;;
74223;SDS011;62585;49.706;18.216;2024-01-30T08:16:53;8.93;;;6.25;;
74223;SDS011;62585;49.706;18.216;2024-01-30T08:19:19;14.75;;;7.60;;
74223;SDS011;62585;49.706;18.216;2024-01-30T08:21:44;9.82;;;6.25;;
74223;SDS011;62585;49.706;18.216;2024-01-30T08:24:10;9.80;;;4.35;;
74223;SDS011;62585;49.706;18.216;2024-01-30T08:26:36;8.82;;;3.97;;
74223;SDS011;62585;49.706;18.216;2024-01-30T08:29:02;8.55;;;4.28;;
74223;SDS011;62585;49.706;18.216;2024-01-30T08:31:28;9.55;;;4.80;;
74223;SDS011;62585;49.706;18.216;2024-01-30T08:33:54;8.45;;;4.78;;
74223;SDS011;62585;49.706;18.216;2024-01-30T08:36:19;4.90;;;2.92;;
74223;SDS011;62585;49.706;18.216;2024-01-30T08:38:45;9.18;;;4.10;;
74223;SDS011;62585;49.706;18.216;2024-01-30T08:41:11;11.70;;;4.05;;
74223;SDS011;62585;49.706;18.216;2024-01-30T08:43:37;6.78;;;3.90;;
74223;SDS011;62585;49.706;18.216;2024-01-30T08:46:02;8.82;;;4.57;;
74223;SDS011;62585;49.706;18.216;2024-01-30T08:48:29;6.35;;;3.75;;
74223;SDS011;62585;49.706;18.216;2024-01-30T08:50:54;8.90;;;4.82;;
74223;SDS011;62585;49.706;18.216;2024-01-30T08:53:20;8.85;;;4.50;;
74223;SDS011;62585;49.706;18.216;2024-01-30T08:55:46;10.23;;;5.15;;
74223;SDS011;62585;49.706;18.216;2024-01-30T08:58:12;8.13;;;4.35;;
74223;SDS011;62585;49.706;18.216;2024-01-30T09:00:38;9.90;;;4.30;;
74223;SDS011;62585;49.706;18.216;2024-01-30T09:03:04;6.65;;;4.07;;
74223;SDS011;62585;49.706;18.216;2024-01-30T09:05:30;5.75;;;3.55;;
74223;SDS011;62585;49.706;18.216;2024-01-30T09:07:56;5.80;;;3.28;;
74223;SDS011;62585;49.706;18.216;2024-01-30T09:10:22;6.40;;;4.30;;
74223;SDS011;62585;49.706;18.216;2024-01-30T09:12:48;7.18;;;3.45;;
74223;SDS011;62585;49.706;18.216;2024-01-30T09:15:14;8.48;;;3.17;;
74223;SDS011;62585;49.706;18.216;2024-01-30T09:17:40;7.40;;;3.45;;
74223;SDS011;62585;49.706;18.216;2024-01-30T09:20:06;6.63;;;3.17;;
74223;SDS011;62585;49.706;18.216;2024-01-30T09:22:33;7.38;;;3.65;;
74223;SDS011;62585;49.706;18.216;2024-01-30T09:24:58;7.78;;;3.45;;
74223;SDS011;62585;49.706;18.216;2024-01-30T09:27:24;8.20;;;3.58;;
74223;SDS011;62585;49.706;18.216;2024-01-30T09:29:50;7.50;;;3.70;;
74223;SDS011;62585;49.706;18.216;2024-01-30T09:32:15;6.95;;;3.83;;
74223;SDS011;62585;49.706;18.216;2024-01-30T09:34:42;8.90;;;3.67;;
74223;SDS011;62585;49.706;18.216;2024-01-30T09:37:08;7.20;;;3.67;;
74223;SDS011;62585;49.706;18.216;2024-01-30T09:39:34;7.53;;;3.83;;
74223;SDS011;62585;49.706;18.216;2024-01-30T09:44:50;5.97;;;3.45;;
74223;SDS011;62585;49.706;18.216;2024-01-30T09:47:17;6.75;;;3.80;;
74223;SDS011;62585;49.706;18.216;2024-01-30T09:49:43;5.97;;;3.50;;
74223;SDS011;62585;49.706;18.216;2024-01-30T09:52:10;5.85;;;3.38;;
74223;SDS011;62585;49.706;18.216;2024-01-30T09:54:36;5.57;;;3.20;;
74223;SDS011;62585;49.706;18.216;2024-01-30T09:59:29;9.20;;;4.75;;
74223;SDS011;62585;49.706;18.216;2024-01-30T10:01:56;8.32;;;3.33;;
74223;SDS011;62585;49.706;18.216;2024-01-30T10:04:22;8.15;;;3.40;;
74223;SDS011;62585;49.706;18.216;2024-01-30T10:06:48;5.70;;;3.13;;
74223;SDS011;62585;49.706;18.216;2024-01-30T10:09:14;8.57;;;3.42;;
74223;SDS011;62585;49.706;18.216;2024-01-30T10:11:40;5.28;;;3.10;;
74223;SDS011;62585;49.706;18.216;2024-01-30T10:14:06;4.88;;;2.22;;
74223;SDS011;62585;49.706;18.216;2024-01-30T10:16:32;6.93;;;3.50;;
74223;SDS011;62585;49.706;18.216;2024-01-30T10:21:25;7.13;;;3.22;;
74223;SDS011;62585;49.706;18.216;2024-01-30T10:23:50;5.45;;;3.55;;
74223;SDS011;62585;49.706;18.216;2024-01-30T10:26:16;8.85;;;3.70;;
74223;SDS011;62585;49.706;18.216;2024-01-30T10:28:45;5.55;;;2.88;;
74223;SDS011;62585;49.706;18.216;2024-01-30T10:31:15;9.23;;;2.60;;
74223;SDS011;62585;49.706;18.216;2024-01-30T10:33:42;5.72;;;3.10;;
74223;SDS011;62585;49.706;18.216;2024-01-30T10:36:09;5.78;;;2.88;;
74223;SDS011;62585;49.706;18.216;2024-01-30T10:38:37;6.00;;;3.55;;
74223;SDS011;62585;49.706;18.216;2024-01-30T10:41:06;8.63;;;2.70;;
74223;SDS011;62585;49.706;18.216;2024-01-30T10:43:36;3.70;;;2.30;;
74223;SDS011;62585;49.706;18.216;2024-01-30T10:46:10;4.22;;;2.38;;
74223;SDS011;62585;49.706;18.216;2024-01-30T10:48:42;4.43;;;2.53;;
74223;SDS011;62585;49.706;18.216;2024-01-30T10:51:10;3.47;;;2.67;;
74223;SDS011;62585;49.706;18.216;2024-01-30T10:53:36;4.72;;;2.85;;
74223;SDS011;62585;49.706;18.216;2024-01-30T10:56:03;6.53;;;3.55;;
74223;SDS011;62585;49.706;18.216;2024-01-30T10:58:29;8.32;;;3.30;;
74223;SDS011;62585;49.706;18.216;2024-01-30T11:00:55;6.32;;;2.60;;
74223;SDS011;62585;49.706;18.216;2024-01-30T11:03:22;9.15;;;3.25;;
74223;SDS011;62585;49.706;18.216;2024-01-30T11:05:49;3.65;;;2.50;;
74223;SDS011;62585;49.706;18.216;2024-01-30T11:08:22;7.75;;;3.22;;
74223;SDS011;62585;49.706;18.216;2024-01-30T11:10:55;6.30;;;2.80;;
74223;SDS011;62585;49.706;18.216;2024-01-30T11:13:22;7.40;;;3.55;;
74223;SDS011;62585;49.706;18.216;2024-01-30T11:15:52;6.00;;;2.95;;
74223;SDS011;62585;49.706;18.216;2024-01-30T11:18:24;7.10;;;3.20;;
74223;SDS011;62585;49.706;18.216;2024-01-30T11:23:17;3.95;;;2.67;;
74223;SDS011;62585;49.706;18.216;2024-01-30T11:25:43;6.72;;;3.90;;
74223;SDS011;62585;49.706;18.216;2024-01-30T11:28:19;6.65;;;3.20;;
74223;SDS011;62585;49.706;18.216;2024-01-30T11:30:47;6.60;;;3.30;;
74223;SDS011;62585;49.706;18.216;2024-01-30T11:33:26;3.83;;;2.17;;
74223;SDS011;62585;49.706;18.216;2024-01-30T11:35:58;7.00;;;3.00;;
74223;SDS011;62585;49.706;18.216;2024-01-30T11:38:25;4.25;;;2.63;;
74223;SDS011;62585;49.706;18.216;2024-01-30T11:40:53;5.13;;;2.88;;
74223;SDS011;62585;49.706;18.216;2024-01-30T11:43:20;5.20;;;2.42;;
74223;SDS011;62585;49.706;18.216;2024-01-30T11:45:46;6.15;;;3.13;;
74223;SDS011;62585;49.706;18.216;2024-01-30T11:48:12;4.43;;;2.42;;
74223;SDS011;62585;49.706;18.216;2024-01-30T11:50:38;4.80;;;2.60;;
74223;SDS011;62585;49.706;18.216;2024-01-30T11:55:32;4.68;;;3.28;;
74223;SDS011;62585;49.706;18.216;2024-01-30T11:57:58;3.83;;;2.55;;
74223;SDS011;62585;49.706;18.216;2024-01-30T12:00:24;5.38;;;3.13;;
74223;SDS011;62585;49.706;18.216;2024-01-30T12:02:51;5.55;;;3.22;;
74223;SDS011;62585;49.706;18.216;2024-01-30T12:05:21;4.43;;;2.70;;
74223;SDS011;62585;49.706;18.216;2024-01-30T12:07:47;3.42;;;2.03;;
74223;SDS011;62585;49.706;18.216;2024-01-30T12:10:13;6.05;;;2.55;;
74223;SDS011;62585;49.706;18.216;2024-01-30T12:12:44;7.45;;;3.35;;
74223;SDS011;62585;49.706;18.216;2024-01-30T12:15:12;5.90;;;2.90;;
74223;SDS011;62585;49.706;18.216;2024-01-30T12:17:39;4.22;;;2.50;;
74223;SDS011;62585;49.706;18.216;2024-01-30T12:20:05;13.45;;;3.17;;
74223;SDS011;62585;49.706;18.216;2024-01-30T12:25:08;4.25;;;3.17;;
74223;SDS011;62585;49.706;18.216;2024-01-30T12:27:44;7.30;;;3.00;;
74223;SDS011;62585;49.706;18.216;2024-01-30T12:30:12;5.63;;;2.70;;
74223;SDS011;62585;49.706;18.216;2024-01-30T12:32:42;6.15;;;3.38;;
74223;SDS011;62585;49.706;18.216;2024-01-30T12:35:10;5.55;;;2.63;;
74223;SDS011;62585;49.706;18.216;2024-01-30T12:37:36;6.82;;;3.70;;
74223;SDS011;62585;49.706;18.216;2024-01-30T12:40:02;9.35;;;2.97;;
74223;SDS011;62585;49.706;18.216;2024-01-30T12:42:29;6.18;;;3.13;;
74223;SDS011;62585;49.706;18.216;2024-01-30T12:44:57;5.20;;;2.55;;
74223;SDS011;62585;49.706;18.216;2024-01-30T12:47:23;5.75;;;2.75;;
74223;SDS011;62585;49.706;18.216;2024-01-30T12:49:49;5.20;;;2.10;;
74223;SDS011;62585;49.706;18.216;2024-01-30T12:52:19;6.13;;;3.63;;
74223;SDS011;62585;49.706;18.216;2024-01-30T12:54:46;7.43;;;3.78;;
74223;SDS011;62585;49.706;18.216;2024-01-30T12:57:12;4.65;;;3.17;;
74223;SDS011;62585;49.706;18.216;2024-01-30T12:59:38;6.68;;;2.90;;
74223;SDS011;62585;49.706;18.216;2024-01-30T13:02:04;2.42;;;1.73;;
74223;SDS011;62585;49.706;18.216;2024-01-30T13:04:30;4.65;;;2.58;;
74223;SDS011;62585;49.706;18.216;2024-01-30T13:06:56;6.03;;;2.80;;
74223;SDS011;62585;49.706;18.216;2024-01-30T13:09:23;6.22;;;3.33;;
74223;SDS011;62585;49.706;18.216;2024-01-30T13:11:49;8.82;;;2.70;;
74223;SDS011;62585;49.706;18.216;2024-01-30T13:16:42;6.72;;;2.92;;
74223;SDS011;62585;49.706;18.216;2024-01-30T13:19:08;6.10;;;2.72;;
74223;SDS011;62585;49.706;18.216;2024-01-30T13:21:34;5.20;;;2.78;;
74223;SDS011;62585;49.706;18.216;2024-01-30T13:24:00;4.10;;;2.60;;
74223;SDS011;62585;49.706;18.216;2024-01-30T13:26:25;3.15;;;2.45;;
74223;SDS011;62585;49.706;18.216;2024-01-30T13:28:51;4.90;;;2.72;;
74223;SDS011;62585;49.706;18.216;2024-01-30T13:31:17;7.47;;;3.67;;
74223;SDS011;62585;49.706;18.216;2024-01-30T13:33:44;6.97;;;2.85;;
74223;SDS011;62585;49.706;18.216;2024-01-30T13:36:10;3.55;;;2.03;;
74223;SDS011;62585;49.706;18.216;2024-01-30T13:38:37;4.13;;;2.58;;
74223;SDS011;62585;49.706;18.216;2024-01-30T13:41:03;5.53;;;2.95;;
74223;SDS011;62585;49.706;18.216;2024-01-30T13:43:29;4.05;;;2.40;;
74223;SDS011;62585;49.706;18.216;2024-01-30T13:45:54;5.00;;;3.00;;
74223;SDS011;62585;49.706;18.216;2024-01-30T13:48:20;6.82;;;2.85;;
74223;SDS011;62585;49.706;18.216;2024-01-30T13:50:47;4.47;;;2.80;;
74223;SDS011;62585;49.706;18.216;2024-01-30T13:53:13;6.30;;;2.83;;
74223;SDS011;62585;49.706;18.216;2024-01-30T13:55:39;4.07;;;2.05;;
74223;SDS011;62585;49.706;18.216;2024-01-30T13:58:05;6.38;;;3.38;;
74223;SDS011;62585;49.706;18.216;2024-01-30T14:00:31;6.00;;;3.72;;
74223;SDS011;62585;49.706;18.216;2024-01-30T14:02:57;5.25;;;2.88;;
74223;SDS011;62585;49.706;18.216;2024-01-30T14:05:24;6.18;;;2.83;;
74223;SDS011;62585;49.706;18.216;2024-01-30T14:07:51;6.22;;;2.70;;
74223;SDS011;62585;49.706;18.216;2024-01-30T14:10:17;5.97;;;3.03;;
74223;SDS011;62585;49.706;18.216;2024-01-30T14:12:43;5.70;;;3.05;;
74223;SDS011;62585;49.706;18.216;2024-01-30T14:17:38;4.15;;;2.53;;
74223;SDS011;62585;49.706;18.216;2024-01-30T14:20:03;3.90;;;2.28;;
74223;SDS011;62585;49.706;18.216;2024-01-30T14:22:31;4.20;;;2.80;;
74223;SDS011;62585;49.706;18.216;2024-01-30T14:24:57;4.82;;;3.00;;
74223;SDS011;62585;49.706;18.216;2024-01-30T14:27:23;5.90;;;2.38;;
74223;SDS011;62585;49.706;18.216;2024-01-30T14:29:48;5.03;;;2.10;;
74223;SDS011;62585;49.706;18.216;2024-01-30T14:32:14;5.50;;;2.92;;
74223;SDS011;62585;49.706;18.216;2024-01-30T14:34:40;6.47;;;2.25;;
74223;SDS011;62585;49.706;18.216;2024-01-30T14:37:06;3.78;;;2.25;;
74223;SDS011;62585;49.706;18.216;2024-01-30T14:39:32;7.53;;;2.58;;
74223;SDS011;62585;49.706;18.216;2024-01-30T14:41:59;5.00;;;2.80;;
74223;SDS011;62585;49.706;18.216;2024-01-30T14:44:25;6.15;;;2.72;;
74223;SDS011;62585;49.706;18.216;2024-01-30T14:46:51;6.05;;;3.40;;
74223;SDS011;62585;49.706;18.216;2024-01-30T14:49:17;6.88;;;2.90;;